Seden, Denmark
Current Conditions -  °F | °C
As of 9:50 AM on Friday 19 Dec 2014 (Local Time) from EKOD Reporting Station
Scattered Clouds Scattered Clouds  
Wind Chill: 40°   Ceiling: Unl
Heat Index: 46°   Visibility: 6mi
Dew Point: 46°   Wind: 15mph
Humidity: 100%   Direction: 240°WSW
Pressure: 29.47"   Gusts: NA
Location:  55.43°N, 10.44°E
Report Text: EKOD 190850Z 24013KT 9999 SCT015 SCT045 08/08 Q0998
Loading
Personal Weather Stations






























Interactive Weather Map New forecast layout! Learn more

10-Day Weather Forecast

Advertisements
Track Severe Weather on mobile